createdAt,value
2023-03-06T00:29:11.217Z,94419.69
2023-03-06T00:31:38.006Z,94418.34
2023-03-06T00:34:04.668Z,94411.28
2023-03-06T00:36:31.321Z,94413.59
2023-03-06T00:38:57.961Z,94408.53
2023-03-06T00:41:25.014Z,94407.19
2023-03-06T00:43:51.614Z,94401.19
2023-03-06T00:46:18.257Z,94410.41
2023-03-06T00:48:44.928Z,94412.50
2023-03-06T00:51:13.865Z,94402.66
2023-03-06T00:53:40.711Z,94389.50
2023-03-06T00:56:09.212Z,94410.53
2023-03-06T00:58:37.399Z,94400.28
2023-03-06T01:01:04.376Z,94399.50
2023-03-06T01:03:31.310Z,94405.13
2023-03-06T01:05:57.977Z,94407.25
2023-03-06T01:08:24.550Z,94401.06
2023-03-06T01:10:51.173Z,94402.19
2023-03-06T01:13:18.117Z,94394.72
2023-03-06T01:15:44.876Z,94386.66
2023-03-06T01:18:11.513Z,94394.16
2023-03-06T01:20:38.378Z,94389.34
2023-03-06T01:23:05.058Z,94401.69
2023-03-06T01:25:31.626Z,94392.88
2023-03-06T01:27:58.178Z,94398.31
2023-03-06T01:30:24.796Z,94393.41
2023-03-06T01:32:51.552Z,94394.88
2023-03-06T01:35:18.947Z,94400.84
2023-03-06T01:37:45.729Z,94398.63
2023-03-06T01:40:13.066Z,94357.91
2023-03-06T01:42:39.920Z,94390.47
2023-03-06T01:45:29.067Z,94389.16
2023-03-06T01:47:55.748Z,94393.75
2023-03-06T01:50:22.348Z,94382.88
2023-03-06T01:52:52.468Z,94381.16
2023-03-06T01:55:26.454Z,94379.00
2023-03-06T01:57:57.844Z,94393.84
2023-03-06T02:00:27.775Z,94371.88
2023-03-06T02:03:00.967Z,94397.41
2023-03-06T02:05:27.581Z,94398.91
2023-03-06T02:07:54.706Z,94393.56
2023-03-06T02:10:22.111Z,94395.56
2023-03-06T02:12:50.772Z,94401.69
2023-03-06T02:15:20.496Z,94395.63
2023-03-06T02:17:49.865Z,94402.91
2023-03-06T02:20:27.482Z,94398.13
2023-03-06T02:23:32.183Z,94394.88
2023-03-06T02:26:01.532Z,94399.97
2023-03-06T02:28:28.478Z,94396.53
2023-03-06T02:30:56.499Z,94399.53
2023-03-06T02:33:26.622Z,94404.44
2023-03-06T02:35:56.224Z,94403.31
2023-03-06T02:38:27.809Z,94409.75
2023-03-06T02:40:55.182Z,94402.38
2023-03-06T02:43:26.117Z,94408.16
2023-03-06T02:45:52.856Z,94400.09
2023-03-06T02:48:20.772Z,94402.31
2023-03-06T02:50:48.146Z,94389.44
2023-03-06T02:53:17.261Z,94404.50
2023-03-06T02:55:44.280Z,94398.25
2023-03-06T02:58:10.898Z,94406.06
2023-03-06T03:00:37.507Z,94406.06
2023-03-06T03:03:05.072Z,94406.22
2023-03-06T03:05:32.592Z,94397.69
2023-03-06T03:07:59.280Z,94408.09
2023-03-06T03:10:26.086Z,94398.97
2023-03-06T03:12:52.784Z,94410.13
2023-03-06T03:15:19.581Z,94405.03
2023-03-06T03:17:46.193Z,94408.28
2023-03-06T03:20:15.498Z,94416.25
2023-03-06T03:22:42.121Z,94402.72
2023-03-06T03:25:09.294Z,94405.47
2023-03-06T03:27:35.932Z,94413.72
2023-03-06T03:30:02.578Z,94414.56
2023-03-06T03:32:29.615Z,94407.06
2023-03-06T03:34:56.686Z,94407.13
2023-03-06T03:37:23.348Z,94408.44
2023-03-06T03:39:49.999Z,94418.75
2023-03-06T03:42:16.620Z,94406.69
2023-03-06T03:44:43.225Z,94413.34
2023-03-06T03:47:09.951Z,94415.06
2023-03-06T03:49:36.672Z,94419.72
2023-03-06T03:52:03.464Z,94419.84
2023-03-06T03:54:30.174Z,94431.75
2023-03-06T03:56:57.145Z,94429.13
2023-03-06T03:59:24.013Z,94423.41
2023-03-06T04:01:50.838Z,94426.72
2023-03-06T04:04:17.498Z,94409.88
2023-03-06T04:06:44.260Z,94427.75
2023-03-06T04:09:10.802Z,94427.31
2023-03-06T04:11:37.550Z,94428.59
2023-03-06T04:14:04.384Z,94421.78
2023-03-06T04:16:31.155Z,94424.28
2023-03-06T04:18:57.918Z,94421.25
2023-03-06T04:21:24.486Z,94423.53
2023-03-06T04:23:51.162Z,94419.94
2023-03-06T04:26:17.838Z,94425.25
2023-03-06T04:28:44.438Z,94420.47
2023-03-06T04:31:12.844Z,94431.66
2023-03-06T04:33:39.853Z,94433.13
2023-03-06T04:36:06.766Z,94432.28
2023-03-06T04:38:33.409Z,94439.81
2023-03-06T04:41:00.124Z,94434.56
2023-03-06T04:43:27.067Z,94437.00
2023-03-06T04:45:53.787Z,94437.63
2023-03-06T04:48:20.635Z,94438.44
2023-03-06T04:50:47.254Z,94437.66
2023-03-06T04:53:14.745Z,94439.41
2023-03-06T04:55:41.375Z,94439.75
2023-03-06T04:58:07.932Z,94444.22
2023-03-06T05:00:34.797Z,94426.72
2023-03-06T05:03:01.698Z,94436.53
2023-03-06T05:05:29.191Z,94440.78
2023-03-06T05:07:56.437Z,94438.81
2023-03-06T05:10:23.962Z,94449.25
2023-03-06T05:12:50.824Z,94449.03
2023-03-06T05:15:17.962Z,94432.38
2023-03-06T05:17:44.921Z,94442.22
2023-03-06T05:20:13.059Z,94438.22
2023-03-06T05:22:40.028Z,94437.78
2023-03-06T05:25:07.478Z,94436.25
2023-03-06T05:27:34.589Z,94449.84
2023-03-06T05:30:01.430Z,94447.34
2023-03-06T05:32:28.284Z,94454.75
2023-03-06T05:34:55.014Z,94460.13
2023-03-06T05:37:23.122Z,94451.69
2023-03-06T05:39:50.976Z,94443.75
2023-03-06T05:42:18.440Z,94449.13
2023-03-06T05:44:45.378Z,94454.56
2023-03-06T05:47:12.221Z,94448.53
2023-03-06T05:49:39.033Z,94460.31
2023-03-06T05:52:07.806Z,94471.81
2023-03-06T05:54:36.283Z,94460.13
2023-03-06T05:57:04.955Z,94473.34
2023-03-06T05:59:33.150Z,94463.94
2023-03-06T06:02:01.189Z,94465.06
2023-03-06T06:04:28.261Z,94472.31
2023-03-06T06:07:00.468Z,94463.31
2023-03-06T06:09:28.236Z,94481.59
2023-03-06T06:11:57.913Z,94473.75
2023-03-06T06:14:24.980Z,94475.16
2023-03-06T06:16:52.123Z,94487.19
2023-03-06T06:19:20.150Z,94492.13
2023-03-06T06:21:48.622Z,94475.59
2023-03-06T06:24:16.923Z,94485.88
2023-03-06T06:26:44.510Z,94488.81
2023-03-06T06:29:12.588Z,94486.19
2023-03-06T06:31:39.976Z,94493.47
2023-03-06T06:34:08.203Z,94491.50
2023-03-06T06:36:34.831Z,94490.31
2023-03-06T06:39:01.551Z,94499.47
2023-03-06T06:41:50.640Z,94505.91
2023-03-06T06:44:16.199Z,94506.31
2023-03-06T06:49:32.865Z,94498.97
2023-03-06T06:52:00.134Z,94499.09
2023-03-06T06:54:27.303Z,94509.91
2023-03-06T06:56:54.311Z,94503.63
2023-03-06T06:59:23.614Z,94507.22
2023-03-06T07:01:51.421Z,94507.78
2023-03-06T07:04:19.242Z,94510.25
2023-03-06T07:06:46.299Z,94514.78
2023-03-06T07:09:13.762Z,94513.16
2023-03-06T07:11:41.037Z,94516.38
2023-03-06T07:14:07.692Z,94513.34
2023-03-06T07:16:34.417Z,94508.34
2023-03-06T07:19:01.140Z,94510.53
2023-03-06T07:21:27.897Z,94522.88
2023-03-06T07:23:57.401Z,94520.38
2023-03-06T07:26:25.287Z,94523.34
2023-03-06T07:28:53.742Z,94516.75
2023-03-06T07:31:26.626Z,94512.63
2023-03-06T07:33:54.495Z,94523.72
2023-03-06T07:36:23.014Z,94514.28
2023-03-06T07:38:49.690Z,94515.81
2023-03-06T07:41:17.257Z,94518.63
2023-03-06T07:43:45.323Z,94520.19
2023-03-06T07:46:13.451Z,94521.50
2023-03-06T07:48:40.978Z,94521.03
2023-03-06T07:51:14.849Z,94517.75
2023-03-06T07:53:41.507Z,94521.81
2023-03-06T07:56:09.312Z,94527.38
2023-03-06T07:58:36.768Z,94518.63
2023-03-06T08:01:08.264Z,94507.53
2023-03-06T08:03:35.071Z,94523.47
2023-03-06T08:06:13.411Z,94520.03
2023-03-06T08:08:41.737Z,94517.38
2023-03-06T08:11:10.391Z,94522.19
2023-03-06T08:13:38.285Z,94517.50
2023-03-06T08:16:06.001Z,94525.44
2023-03-06T08:18:33.154Z,94515.69
2023-03-06T08:21:07.114Z,94531.69
2023-03-06T08:23:34.705Z,94523.75
2023-03-06T08:26:04.490Z,94519.88
2023-03-06T08:28:31.416Z,94523.66
2023-03-06T08:30:58.570Z,94521.25
2023-03-06T08:33:25.528Z,94517.97
2023-03-06T08:35:52.719Z,94512.19
2023-03-06T08:38:19.445Z,94515.97
2023-03-06T08:40:46.045Z,94512.81
2023-03-06T08:43:14.183Z,94516.38
2023-03-06T08:45:41.001Z,94518.75
2023-03-06T08:48:07.723Z,94513.59
2023-03-06T08:50:34.481Z,94526.41
2023-03-06T08:53:01.335Z,94522.84
2023-03-06T08:55:28.293Z,94516.31
2023-03-06T08:57:54.960Z,94508.81
2023-03-06T09:00:21.692Z,94508.53
2023-03-06T09:02:48.366Z,94504.56
2023-03-06T09:05:14.992Z,94504.69
2023-03-06T09:07:41.548Z,94500.84
2023-03-06T09:10:12.734Z,94500.50
2023-03-06T09:12:49.908Z,94501.28
2023-03-06T09:15:19.175Z,94500.91
2023-03-06T09:17:45.960Z,94484.56
2023-03-06T09:20:12.950Z,94484.22
2023-03-06T09:22:39.681Z,94487.94
2023-03-06T09:25:06.877Z,94488.63
2023-03-06T09:27:33.565Z,94492.16
2023-03-06T09:30:00.260Z,94484.19
2023-03-06T09:32:26.941Z,94483.63
2023-03-06T09:34:53.865Z,94479.22
2023-03-06T09:37:20.581Z,94477.44
2023-03-06T09:39:47.280Z,94472.72
2023-03-06T09:42:20.457Z,94482.31
2023-03-06T09:44:59.892Z,94480.06
2023-03-06T09:47:47.833Z,94474.75
2023-03-06T09:50:17.160Z,94479.63
2023-03-06T09:53:15.368Z,94471.13
2023-03-06T09:55:46.710Z,94474.81
2023-03-06T09:58:25.144Z,94474.66
2023-03-06T10:01:06.562Z,94466.84
2023-03-06T10:04:05.215Z,94461.56
2023-03-06T10:06:49.139Z,94458.00
2023-03-06T10:09:15.731Z,94463.06
2023-03-06T10:11:48.822Z,94456.50
2023-03-06T10:14:37.708Z,94462.09
2023-03-06T10:17:05.845Z,94455.69
2023-03-06T10:19:37.726Z,94460.91
2023-03-06T10:22:37.050Z,94455.97
2023-03-06T10:25:20.363Z,94454.88
2023-03-06T10:27:50.296Z,94443.13
2023-03-06T10:30:38.631Z,94450.06
2023-03-06T10:33:21.387Z,94446.16
2023-03-06T10:35:53.698Z,94447.44
2023-03-06T10:38:48.392Z,94442.38
2023-03-06T10:41:30.588Z,94439.72
2023-03-06T10:43:59.934Z,94440.56
2023-03-06T10:46:33.339Z,94427.84
2023-03-06T10:49:02.326Z,94417.72
2023-03-06T10:51:30.323Z,94428.59
2023-03-06T10:53:59.895Z,94419.44
2023-03-06T10:56:38.291Z,94404.75
2023-03-06T10:59:22.991Z,94412.31
2023-03-06T11:01:54.944Z,94408.66
2023-03-06T11:04:32.494Z,94401.59
2023-03-06T11:07:15.465Z,94404.84
2023-03-06T11:09:52.329Z,94399.50
2023-03-06T11:12:30.319Z,94382.75
2023-03-06T11:15:32.461Z,94381.03
2023-03-06T11:18:34.917Z,94364.34
2023-03-06T11:21:04.209Z,94373.88
2023-03-06T11:23:47.243Z,94368.09
2023-03-06T11:26:13.855Z,94353.19
2023-03-06T11:28:43.927Z,94369.16
2023-03-06T11:31:18.649Z,94363.84
2023-03-06T11:34:05.104Z,94362.19
2023-03-06T11:36:54.411Z,94354.41
2023-03-06T11:39:26.450Z,94351.72
2023-03-06T11:42:02.131Z,94342.88
2023-03-06T11:44:43.719Z,94347.63
2023-03-06T11:47:18.349Z,94331.84
2023-03-06T11:49:49.432Z,94339.75
2023-03-06T11:52:23.156Z,94312.06
2023-03-06T11:54:54.723Z,94316.38
2023-03-06T11:57:42.107Z,94297.75
2023-03-06T12:00:17.706Z,94306.72
2023-03-06T12:02:56.030Z,94310.63
2023-03-06T12:05:31.794Z,94314.44
2023-03-06T12:08:20.675Z,94314.94
2023-03-06T12:11:26.455Z,94306.56
2023-03-06T12:14:01.017Z,94299.16
2023-03-06T12:16:58.718Z,94297.69
2023-03-06T12:19:31.351Z,94297.69
2023-03-06T12:22:09.641Z,94305.63
2023-03-06T12:24:55.330Z,94292.47
2023-03-06T12:27:33.723Z,94289.47
2023-03-06T12:30:20.570Z,94289.69
2023-03-06T12:33:14.830Z,94290.34
2023-03-06T12:35:44.390Z,94279.97
2023-03-06T12:38:46.214Z,94281.16
2023-03-06T12:41:12.827Z,94277.59
2023-03-06T12:43:40.139Z,94280.91
2023-03-06T12:46:15.336Z,94262.28
2023-03-06T12:48:48.579Z,94273.03
2023-03-06T12:51:20.475Z,94259.72
2023-03-06T12:53:49.260Z,94259.25
2023-03-06T12:56:18.268Z,94257.56
2023-03-06T12:58:54.621Z,94249.78
2023-03-06T13:01:36.315Z,94252.72
2023-03-06T13:04:19.602Z,94225.72
2023-03-06T13:07:01.764Z,94248.94
2023-03-06T13:10:02.560Z,94243.97
2023-03-06T13:12:41.272Z,94243.47
2023-03-06T13:15:29.763Z,94234.72
2023-03-06T13:17:56.947Z,94227.78
2023-03-06T13:20:44.522Z,94237.50
2023-03-06T13:23:29.671Z,94233.53
2023-03-06T13:26:25.574Z,94222.00
2023-03-06T13:28:54.111Z,94231.78
2023-03-06T13:31:34.443Z,94228.28
2023-03-06T13:34:06.276Z,94218.91
2023-03-06T13:36:39.606Z,94215.28
2023-03-06T13:39:12.873Z,94223.50
2023-03-06T13:41:52.927Z,94210.53
2023-03-06T13:44:25.661Z,94217.19
2023-03-06T13:47:06.103Z,94224.56
2023-03-06T13:49:34.513Z,94209.06
2023-03-06T13:52:03.711Z,94217.25
2023-03-06T13:54:59.985Z,94228.16
2023-03-06T13:57:38.247Z,94223.66
2023-03-06T14:00:32.693Z,94209.50
2023-03-06T14:03:14.300Z,94223.13
2023-03-06T14:05:46.563Z,94212.41
2023-03-06T14:08:28.408Z,94215.84
2023-03-06T14:11:02.454Z,94211.69
2023-03-06T14:13:45.445Z,94212.84
2023-03-06T14:16:22.664Z,94205.47
2023-03-06T14:18:55.419Z,94211.75
2023-03-06T14:21:36.998Z,94203.59
2023-03-06T14:24:05.580Z,94190.59
2023-03-06T14:26:39.348Z,94213.25
2023-03-06T14:29:20.796Z,94219.16
2023-03-06T14:31:50.813Z,94222.31
2023-03-06T14:34:35.589Z,94219.16
2023-03-06T14:37:05.542Z,94207.59
2023-03-06T14:39:41.534Z,94232.75
2023-03-06T14:42:21.481Z,94230.03
2023-03-06T14:44:49.727Z,94223.53
2023-03-06T14:47:29.134Z,94245.94
2023-03-06T14:50:17.446Z,94230.84
2023-03-06T14:52:44.419Z,94224.06
2023-03-06T14:55:16.987Z,94222.06
2023-03-06T14:57:44.018Z,94231.94
2023-03-06T15:00:17.415Z,94222.47
2023-03-06T15:02:45.207Z,94227.53
2023-03-06T15:05:31.002Z,94232.75
2023-03-06T15:08:02.483Z,94232.06
2023-03-06T15:10:35.636Z,94222.63
2023-03-06T15:13:22.379Z,94233.34
2023-03-06T15:15:56.166Z,94219.69
2023-03-06T15:18:30.629Z,94204.56
2023-03-06T15:21:16.679Z,94218.38
2023-03-06T15:23:46.900Z,94222.78
2023-03-06T15:26:33.469Z,94218.72
2023-03-06T15:29:10.229Z,94229.91
2023-03-06T15:31:42.230Z,94226.25
2023-03-06T15:34:11.469Z,94230.16
2023-03-06T15:36:46.067Z,94224.69
2023-03-06T15:39:36.985Z,94234.03
2023-03-06T15:42:22.432Z,94241.47
2023-03-06T15:44:53.793Z,94231.16
2023-03-06T15:47:21.629Z,94250.38
2023-03-06T15:49:52.051Z,94239.00
2023-03-06T15:52:22.108Z,94236.72
2023-03-06T15:54:51.847Z,94242.34
2023-03-06T15:57:29.101Z,94240.59
2023-03-06T15:59:57.813Z,94259.47
2023-03-06T16:02:24.741Z,94242.03
2023-03-06T16:04:53.508Z,94249.75
2023-03-06T16:07:20.798Z,94255.81
2023-03-06T16:09:47.574Z,94268.22
2023-03-06T16:12:20.522Z,94262.16
2023-03-06T16:14:48.508Z,94241.28
2023-03-06T16:17:16.091Z,94259.88
2023-03-06T16:19:43.473Z,94267.78
2023-03-06T16:22:10.627Z,94257.56
2023-03-06T16:24:37.752Z,94268.72
2023-03-06T16:27:04.835Z,94257.97
2023-03-06T16:29:31.870Z,94259.78
2023-03-06T16:32:00.717Z,94255.91
2023-03-06T16:34:27.714Z,94243.72
2023-03-06T16:36:54.502Z,94259.66
2023-03-06T16:39:22.894Z,94254.53
2023-03-06T16:41:50.632Z,94254.28
2023-03-06T16:44:17.331Z,94244.75
2023-03-06T16:46:46.173Z,94256.25
2023-03-06T16:49:24.066Z,94265.44
2023-03-06T16:51:51.621Z,94261.91
2023-03-06T16:54:18.821Z,94268.03
2023-03-06T16:56:45.936Z,94272.34
2023-03-06T16:59:12.724Z,94274.69
2023-03-06T17:01:42.698Z,94274.56
2023-03-06T17:04:09.756Z,94270.16
2023-03-06T17:06:36.743Z,94265.38
2023-03-06T17:09:04.621Z,94264.06
2023-03-06T17:11:31.362Z,94267.00
2023-03-06T17:13:58.008Z,94261.78
2023-03-06T17:16:24.651Z,94260.38
2023-03-06T17:18:52.491Z,94258.13
2023-03-06T17:21:19.224Z,94232.25
2023-03-06T17:23:46.207Z,94262.91
2023-03-06T17:26:18.877Z,94235.75
2023-03-06T17:28:46.718Z,94248.56
2023-03-06T17:31:17.686Z,94255.81
2023-03-06T17:33:44.936Z,94263.03
2023-03-06T17:36:14.368Z,94272.91
2023-03-06T17:38:41.874Z,94259.88
2023-03-06T17:41:10.016Z,94262.72
2023-03-06T17:43:38.078Z,94265.75
2023-03-06T17:46:06.904Z,94251.56
2023-03-06T17:48:34.138Z,94267.13
2023-03-06T17:51:01.124Z,94268.16
2023-03-06T17:53:28.330Z,94256.16
2023-03-06T17:55:55.588Z,94268.75
2023-03-06T17:58:22.307Z,94260.66
2023-03-06T18:00:49.221Z,94277.91
2023-03-06T18:03:15.915Z,94278.19
2023-03-06T18:05:42.468Z,94283.38
2023-03-06T18:08:10.312Z,94275.75
2023-03-06T18:10:41.564Z,94280.16
2023-03-06T18:13:09.016Z,94267.25
2023-03-06T18:15:39.820Z,94282.03
2023-03-06T18:18:07.291Z,94281.88
2023-03-06T18:20:34.259Z,94272.69
2023-03-06T18:23:03.608Z,94279.03
2023-03-06T18:25:32.415Z,94279.03
2023-03-06T18:27:59.462Z,94278.56
2023-03-06T18:30:26.928Z,94276.16
2023-03-06T18:32:54.008Z,94276.97
2023-03-06T18:35:21.175Z,94280.38
2023-03-06T18:37:47.871Z,94275.00
2023-03-06T18:40:15.073Z,94279.06
2023-03-06T18:42:42.153Z,94281.50
2023-03-06T18:45:09.858Z,94274.63
2023-03-06T18:47:36.766Z,94277.25
2023-03-06T18:50:03.725Z,94262.91
2023-03-06T18:52:34.602Z,94282.41
2023-03-06T18:55:10.243Z,94271.34
2023-03-06T18:57:37.566Z,94274.19
2023-03-06T19:00:07.850Z,94239.91
2023-03-06T19:02:35.167Z,94285.88
2023-03-06T19:05:05.715Z,94275.47
2023-03-06T19:07:46.577Z,94215.09
2023-03-06T19:10:17.518Z,94171.22
2023-03-06T19:12:47.944Z,94275.94
2023-03-06T19:15:22.223Z,94238.72
2023-03-06T19:17:59.474Z,94176.78
2023-03-06T19:20:31.376Z,94273.97
2023-03-06T19:23:09.379Z,94255.88
2023-03-06T19:25:40.212Z,94230.19
2023-03-06T19:28:10.806Z,94179.88
2023-03-06T19:30:41.232Z,94269.19
2023-03-06T19:33:13.230Z,94213.19
2023-03-06T19:35:42.226Z,94117.94
2023-03-06T19:38:21.021Z,94236.06
2023-03-06T19:40:51.305Z,94273.69
2023-03-06T19:43:18.048Z,94258.94
2023-03-06T19:45:44.801Z,94264.78
2023-03-06T19:48:13.489Z,94245.34
2023-03-06T19:50:40.542Z,94255.78
2023-03-06T19:53:07.897Z,94232.91
2023-03-06T19:55:34.973Z,94205.53
2023-03-06T19:58:01.943Z,94260.59
2023-03-06T20:00:29.048Z,94239.00
2023-03-06T20:02:57.016Z,94236.28
2023-03-06T20:05:23.596Z,94205.34
2023-03-06T20:07:50.283Z,94238.25
2023-03-06T20:10:17.505Z,94239.66
2023-03-06T20:12:44.458Z,94230.38
2023-03-06T20:15:12.033Z,94242.66
2023-03-06T20:17:40.702Z,94241.72
2023-03-06T20:20:09.824Z,94233.75
2023-03-06T20:22:36.456Z,94241.63
2023-03-06T20:25:03.716Z,94244.06
2023-03-06T20:27:30.410Z,94264.59
2023-03-06T20:29:57.221Z,94267.16
2023-03-06T20:32:23.896Z,94273.13
2023-03-06T20:34:50.625Z,94276.22
2023-03-06T20:37:17.374Z,94281.31
2023-03-06T20:39:44.108Z,94264.41
2023-03-06T20:42:10.691Z,94273.78
2023-03-06T20:44:37.388Z,94282.75
2023-03-06T20:47:04.244Z,94267.16
2023-03-06T20:49:30.856Z,94270.44
2023-03-06T20:51:57.536Z,94265.09
2023-03-06T20:54:24.172Z,94259.28
2023-03-06T20:56:50.802Z,94256.22
2023-03-06T20:59:17.551Z,94261.81
2023-03-06T21:01:45.726Z,94262.28
2023-03-06T21:04:14.261Z,94261.19
2023-03-06T21:06:45.338Z,94262.75
2023-03-06T21:09:13.620Z,94264.53
2023-03-06T21:11:40.493Z,94270.25
2023-03-06T21:14:07.189Z,94255.16
2023-03-06T21:16:34.148Z,94262.44
2023-03-06T21:19:01.272Z,94256.44
2023-03-06T21:21:30.801Z,94266.38
2023-03-06T21:23:57.799Z,94265.06
2023-03-06T21:26:26.951Z,94264.91
2023-03-06T21:28:53.918Z,94250.50
2023-03-06T21:31:22.110Z,94263.41
2023-03-06T21:33:49.815Z,94262.09
2023-03-06T21:36:18.739Z,94266.47
2023-03-06T21:38:45.331Z,94254.59
2023-03-06T21:41:30.661Z,94269.13
2023-03-06T21:43:59.373Z,94263.81
2023-03-06T21:46:27.496Z,94262.84
2023-03-06T21:48:54.844Z,94259.91
2023-03-06T21:51:23.700Z,94269.13
2023-03-06T21:53:51.289Z,94267.53
2023-03-06T21:56:20.767Z,94256.41
2023-03-06T21:58:47.506Z,94252.50
2023-03-06T22:01:20.085Z,94259.25
2023-03-06T22:03:47.386Z,94242.72
2023-03-06T22:06:22.737Z,94242.13
2023-03-06T22:08:49.333Z,94253.38
2023-03-06T22:11:18.644Z,94258.50
2023-03-06T22:13:46.274Z,94234.59
2023-03-06T22:16:13.718Z,94260.75
2023-03-06T22:18:44.365Z,94252.34
2023-03-06T22:21:12.934Z,94222.41
2023-03-06T22:23:40.606Z,94242.44
2023-03-06T22:26:12.856Z,94249.94
2023-03-06T22:28:39.622Z,94259.88
2023-03-06T22:31:17.660Z,94253.09
2023-03-06T22:33:44.595Z,94223.00
2023-03-06T22:36:14.472Z,94257.47
2023-03-06T22:38:43.457Z,94255.34
2023-03-06T22:41:11.459Z,94261.38
2023-03-06T22:43:38.086Z,94258.50
2023-03-06T22:46:10.004Z,94258.06
2023-03-06T22:48:36.670Z,94256.56
2023-03-06T22:51:09.394Z,94263.34
2023-03-06T22:53:36.803Z,94258.81
2023-03-06T22:56:05.549Z,94255.03
2023-03-06T22:58:37.349Z,94265.41
2023-03-06T23:01:12.225Z,94268.59
2023-03-06T23:03:40.660Z,94263.16
2023-03-06T23:06:30.493Z,94274.00
2023-03-06T23:09:06.048Z,94268.28
2023-03-06T23:11:33.501Z,94254.31
2023-03-06T23:14:00.734Z,94270.72
2023-03-06T23:16:27.352Z,94266.19
2023-03-06T23:18:54.173Z,94276.72
2023-03-06T23:21:23.028Z,94270.84
2023-03-06T23:23:51.544Z,94256.84
2023-03-06T23:26:20.492Z,94266.19
2023-03-06T23:28:47.271Z,94265.13
2023-03-06T23:31:17.849Z,94257.59
2023-03-06T23:33:44.508Z,94256.69
2023-03-06T23:36:13.638Z,94246.31
2023-03-06T23:38:40.829Z,94235.16
2023-03-06T23:41:18.616Z,94240.28
2023-03-06T23:43:47.040Z,94250.84
2023-03-06T23:46:14.133Z,94237.00
2023-03-06T23:48:42.031Z,94242.72
2023-03-06T23:51:13.002Z,94240.75
2023-03-06T23:53:39.673Z,94243.75
2023-03-06T23:56:07.316Z,94236.38
2023-03-06T23:58:34.311Z,94237.00
